Time;durP1;ratioP1;P1;durP2;ratioP2;P2;SDS_P1;SDS_P2;PMS_P1;PMS_P2;Temp;Humidity;BMP_temperature;BMP_pressure;BME280_temperature;BME280_humidity;BME280_pressure;Samples;Min_cycle;Max_cycle;Signal;HPM_P1;HPM_P2
2023/12/03 00:00:41;;;;;;;37.08;17.58;;;;;;;0.49;77.25;98943.00;5067042;28;20699;-85
2023/12/03 00:03:07;;;;;;;46.20;17.50;;;;;;;0.44;77.58;98949.78;5038452;28;20071;-85
2023/12/03 00:05:35;;;;;;;40.30;18.20;;;;;;;0.16;78.19;98948.78;5048956;28;20028;-85
2023/12/03 00:08:01;;;;;;;29.77;16.02;;;;;;;0.34;77.68;98947.44;5072211;28;20033;-85
2023/12/03 00:10:27;;;;;;;39.40;16.88;;;;;;;-0.21;77.56;98907.66;5070604;28;20024;-85
2023/12/03 00:12:52;;;;;;;33.70;18.00;;;;;;;0.45;77.77;98922.53;5069680;28;20029;-85
2023/12/03 00:15:18;;;;;;;32.38;16.95;;;;;;;0.45;77.34;98909.41;5039741;28;20040;-86
2023/12/03 00:17:43;;;;;;;35.20;17.23;;;;;;;0.36;76.80;98934.13;5058551;28;20029;-85
2023/12/03 00:20:09;;;;;;;32.70;17.35;;;;;;;0.41;77.57;98929.16;5052440;28;20119;-85
2023/12/03 00:22:34;;;;;;;32.80;17.27;;;;;;;0.27;77.15;98922.91;5056387;28;20073;-85
2023/12/03 00:25:00;;;;;;;36.30;17.65;;;;;;;0.45;77.89;98933.88;5050359;28;20108;-85
2023/12/03 00:27:25;;;;;;;33.53;17.17;;;;;;;0.45;77.43;98927.78;5055976;28;20028;-84
2023/12/03 00:29:50;;;;;;;30.65;15.63;;;;;;;0.26;78.05;98930.97;5064630;28;20022;-85
2023/12/03 00:32:16;;;;;;;30.35;16.38;;;;;;;0.50;77.49;98939.38;5061169;28;20048;-85
2023/12/03 00:34:41;;;;;;;37.97;17.98;;;;;;;0.45;77.79;98927.78;5047833;28;20032;-86
2023/12/03 00:37:07;;;;;;;34.25;18.38;;;;;;;0.03;78.18;98930.22;5069751;28;20665;-85
2023/12/03 00:39:32;;;;;;;38.00;19.65;;;;;;;-0.19;79.05;98924.03;5070934;28;20024;-85
2023/12/03 00:41:57;;;;;;;36.55;18.05;;;;;;;0.05;78.98;98930.84;5053773;28;20052;-86
2023/12/03 00:44:23;;;;;;;31.55;17.10;;;;;;;0.46;78.18;98932.06;5055402;28;20024;-85
2023/12/03 00:46:48;;;;;;;46.22;21.70;;;;;;;0.29;78.21;98930.59;5048557;28;20028;-85
2023/12/03 00:49:14;;;;;;;40.03;21.85;;;;;;;-0.22;77.85;98892.94;5051862;28;20071;-86
2023/12/03 00:51:39;;;;;;;37.13;17.88;;;;;;;0.06;78.53;98890.50;5051482;28;20035;-87
2023/12/03 00:54:04;;;;;;;35.03;16.75;;;;;;;0.66;77.95;98931.31;5033204;28;20401;-86
2023/12/03 00:56:30;;;;;;;42.38;20.63;;;;;;;0.34;77.59;98929.06;5064602;28;20032;-86
2023/12/03 00:58:55;;;;;;;35.40;18.65;;;;;;;0.44;77.73;98921.72;5054720;28;20033;-86
2023/12/03 01:01:20;;;;;;;36.53;18.60;;;;;;;0.25;78.16;98926.69;5068264;28;20384;-86
2023/12/03 01:03:46;;;;;;;35.83;17.90;;;;;;;0.52;77.61;98940.03;5067607;28;20056;-86
2023/12/03 01:06:11;;;;;;;33.33;17.05;;;;;;;0.52;78.25;98932.16;5069895;28;20028;-87
2023/12/03 01:08:37;;;;;;;32.05;17.58;;;;;;;0.57;77.92;98940.28;5050814;28;20035;-86
2023/12/03 01:11:06;;;;;;;34.53;17.75;;;;;;;0.59;77.56;98930.41;5036349;28;20396;-86
2023/12/03 01:13:31;;;;;;;35.83;18.23;;;;;;;0.60;77.51;98937.28;5068854;28;20025;-86
2023/12/03 01:15:56;;;;;;;35.20;19.20;;;;;;;0.30;77.51;98940.09;5070512;28;20029;-86
2023/12/03 01:18:22;;;;;;;47.15;19.55;;;;;;;0.37;77.81;98943.66;5053469;28;20025;-86
2023/12/03 01:20:47;;;;;;;40.70;19.52;;;;;;;0.49;77.28;98931.69;5036352;28;20059;-86
2023/12/03 01:23:13;;;;;;;40.88;20.85;;;;;;;0.42;77.37;98944.72;5061776;28;20094;-86
2023/12/03 01:25:38;;;;;;;35.60;19.15;;;;;;;0.20;78.12;98950.88;5049816;28;20416;-86
2023/12/03 01:28:04;;;;;;;38.30;19.77;;;;;;;0.22;78.67;98914.75;5067791;28;20074;-86
2023/12/03 01:30:29;;;;;;;35.72;18.60;;;;;;;0.40;77.80;98928.34;5050994;28;20033;-87
2023/12/03 01:32:54;;;;;;;41.85;21.70;;;;;;;0.38;77.57;98958.38;5054169;28;20490;-86
2023/12/03 01:35:20;;;;;;;40.05;19.48;;;;;;;0.55;78.00;98965.91;5068978;28;20043;-87
2023/12/03 01:37:45;;;;;;;35.20;18.08;;;;;;;0.39;78.20;98952.16;5031716;28;20059;-87
2023/12/03 01:40:11;;;;;;;39.63;20.55;;;;;;;-0.04;78.13;98941.44;5070729;28;20503;-87
2023/12/03 01:42:36;;;;;;;38.20;19.58;;;;;;;0.07;78.69;98926.25;5047875;28;20021;-87
2023/12/03 01:45:02;;;;;;;40.72;19.33;;;;;;;0.08;78.52;98964.59;5067976;28;20032;-86
2023/12/03 01:47:28;;;;;;;39.13;20.23;;;;;;;-0.18;79.24;98942.25;5062149;28;20095;-87
2023/12/03 01:49:54;;;;;;;35.90;20.25;;;;;;;0.25;78.65;98977.38;5032928;28;20043;-86
2023/12/03 01:52:22;;;;;;;39.80;18.27;;;;;;;0.04;79.07;98965.97;5052795;28;20052;-87
2023/12/03 01:54:48;;;;;;;37.80;21.60;;;;;;;0.22;78.49;98942.84;5031772;28;20025;-87
2023/12/03 01:57:14;;;;;;;37.47;18.85;;;;;;;0.09;77.79;98953.94;5046953;28;20074;-87
2023/12/03 01:59:40;;;;;;;32.78;19.08;;;;;;;0.11;79.33;98969.50;5050740;28;20075;-87
2023/12/03 02:02:05;;;;;;;37.90;20.67;;;;;;;-0.05;78.93;98954.72;5069506;28;20075;-87
2023/12/03 02:04:31;;;;;;;39.95;19.35;;;;;;;0.32;78.99;98969.63;5036015;28;20476;-87
2023/12/03 02:06:56;;;;;;;34.90;18.63;;;;;;;0.28;78.62;98970.97;5048394;28;20029;-87
2023/12/03 02:09:23;;;;;;;35.33;20.10;;;;;;;0.04;78.18;98973.84;5068779;28;20024;-87
2023/12/03 02:11:48;;;;;;;37.90;19.75;;;;;;;0.05;79.03;98949.22;5065180;28;20028;-86
2023/12/03 02:14:14;;;;;;;39.00;20.85;;;;;;;-0.09;78.83;98924.63;5046693;28;20032;-87
2023/12/03 02:16:47;;;;;;;37.80;19.98;;;;;;;0.27;78.99;98979.81;5049951;28;20530;-86
2023/12/03 02:19:16;;;;;;;32.08;19.90;;;;;;;0.50;78.43;98980.59;5065285;28;20024;-86
2023/12/03 02:21:42;;;;;;;36.05;20.45;;;;;;;-0.17;78.53;98977.13;5083090;28;20111;-86
2023/12/03 02:24:07;;;;;;;41.78;22.77;;;;;;;-0.22;79.73;98948.00;5049286;28;20052;-86
2023/12/03 02:26:33;;;;;;;35.13;20.33;;;;;;;0.06;80.12;98975.28;5067194;28;20577;-86
2023/12/03 02:28:58;;;;;;;41.70;21.80;;;;;;;-0.20;79.38;98978.28;5062852;28;20029;-86
2023/12/03 02:31:25;;;;;;;36.78;19.40;;;;;;;0.03;80.06;98974.81;5027459;28;20418;-86
2023/12/03 02:34:00;;;;;;;31.90;19.17;;;;;;;-0.02;78.97;98943.88;5066385;28;20059;-85
2023/12/03 02:36:26;;;;;;;38.67;19.17;;;;;;;0.05;79.33;98968.41;5068408;28;20035;-86
2023/12/03 02:38:51;;;;;;;33.47;18.67;;;;;;;0.06;79.21;98970.03;5063543;28;20081;-86
2023/12/03 02:41:17;;;;;;;40.40;21.35;;;;;;;0.23;79.08;98974.13;5038839;28;20028;-85
2023/12/03 02:43:42;;;;;;;38.08;20.85;;;;;;;0.29;79.30;98975.22;5035047;28;20167;-85
2023/12/03 02:46:07;;;;;;;38.10;19.60;;;;;;;0.38;78.17;98974.13;5053657;28;20044;-85
2023/12/03 02:48:33;;;;;;;37.42;20.10;;;;;;;0.35;78.83;98977.13;5036576;28;20033;-86
2023/12/03 02:50:58;;;;;;;36.85;20.67;;;;;;;0.30;78.69;98966.34;5050414;28;20147;-86
2023/12/03 02:53:23;;;;;;;38.67;19.90;;;;;;;0.17;78.39;98967.00;5049800;28;20170;-86
2023/12/03 02:55:49;;;;;;;40.75;20.23;;;;;;;0.28;78.84;98971.78;5070511;28;20028;-86
2023/12/03 02:58:14;;;;;;;38.40;22.52;;;;;;;0.00;79.06;98971.56;5056453;28;20032;-86
2023/12/03 03:00:40;;;;;;;40.38;22.40;;;;;;;-0.05;78.17;98965.22;5031623;28;20036;-86
2023/12/03 03:03:05;;;;;;;35.75;20.17;;;;;;;-0.18;79.82;98971.09;5054281;28;20033;-86
2023/12/03 03:05:30;;;;;;;43.72;22.50;;;;;;;-0.33;78.78;98951.06;5050030;28;20060;-86
2023/12/03 03:07:56;;;;;;;39.17;22.17;;;;;;;0.18;78.86;98991.41;5051899;28;20024;-86
2023/12/03 03:10:21;;;;;;;40.13;21.38;;;;;;;0.15;79.07;98982.09;5065505;28;20037;-86
2023/12/03 03:12:47;;;;;;;34.75;19.20;;;;;;;0.12;79.40;98989.50;5038765;28;20495;-87
2023/12/03 03:15:12;;;;;;;35.63;20.17;;;;;;;0.20;79.32;98986.81;5057128;28;20926;-86
2023/12/03 03:17:38;;;;;;;33.95;18.98;;;;;;;0.01;78.58;98990.75;5048948;28;20028;-86
2023/12/03 03:20:03;;;;;;;35.78;20.02;;;;;;;-0.31;79.49;98991.84;5054833;28;20024;-86
2023/12/03 03:22:29;;;;;;;36.25;20.33;;;;;;;0.20;79.75;98982.34;5055615;28;20071;-86
2023/12/03 03:24:54;;;;;;;34.35;18.52;;;;;;;0.26;79.52;98997.41;5039500;28;20596;-86
2023/12/03 03:27:19;;;;;;;37.63;18.83;;;;;;;-0.07;78.21;98988.19;5050715;28;20028;-87
2023/12/03 03:29:45;;;;;;;35.92;18.95;;;;;;;0.17;79.42;98984.53;5037210;28;20119;-87
2023/12/03 03:32:10;;;;;;;33.38;18.77;;;;;;;0.06;79.19;98983.16;5056921;28;20028;-87
2023/12/03 03:34:35;;;;;;;34.30;19.05;;;;;;;0.37;79.16;98990.91;5037381;28;20054;-87
2023/12/03 03:37:01;;;;;;;35.53;18.17;;;;;;;0.38;78.46;98979.38;5034200;28;20025;-87
2023/12/03 03:39:26;;;;;;;33.05;18.17;;;;;;;0.39;79.02;98994.97;5072785;28;20045;-87
2023/12/03 03:41:52;;;;;;;35.38;19.73;;;;;;;0.22;78.81;99003.97;5041493;28;20382;-86
2023/12/03 03:44:17;;;;;;;32.15;18.42;;;;;;;0.32;78.64;98998.47;5033572;28;20091;-87
2023/12/03 03:46:42;;;;;;;36.10;19.27;;;;;;;0.34;78.18;98996.50;5038255;28;20121;-87
2023/12/03 03:49:08;;;;;;;38.38;19.13;;;;;;;0.21;78.42;98989.25;5040034;28;20492;-87
2023/12/03 03:51:33;;;;;;;33.70;17.80;;;;;;;-0.03;79.48;98978.97;5049331;28;20443;-87
2023/12/03 03:53:58;;;;;;;33.75;18.67;;;;;;;-0.10;80.25;98997.22;5050757;28;20032;-87
2023/12/03 03:56:24;;;;;;;38.90;19.80;;;;;;;-0.15;80.81;99004.81;5052308;28;20044;-87
2023/12/03 03:58:49;;;;;;;36.75;20.08;;;;;;;-0.22;80.01;98989.97;5038558;28;20082;-87
2023/12/03 04:01:14;;;;;;;37.78;19.73;;;;;;;0.07;79.92;98994.47;5038704;28;20048;-87
2023/12/03 04:03:40;;;;;;;43.00;20.92;;;;;;;-0.22;81.00;99010.94;5035941;28;20036;-87
2023/12/03 04:06:06;;;;;;;33.53;19.02;;;;;;;0.33;79.51;99010.63;5047476;28;20032;-87
2023/12/03 04:08:32;;;;;;;33.35;18.75;;;;;;;0.58;78.94;99010.19;5063031;28;20118;-87
2023/12/03 04:11:02;;;;;;;43.95;22.30;;;;;;;-0.59;78.95;99011.69;5054153;28;20033;-87
2023/12/03 04:13:27;;;;;;;35.95;20.15;;;;;;;0.19;79.60;99006.16;5049475;28;20039;-86
2023/12/03 04:15:53;;;;;;;34.53;19.27;;;;;;;0.37;80.11;99014.53;5049376;28;20477;-86
2023/12/03 04:18:18;;;;;;;41.42;21.55;;;;;;;-0.06;78.20;98998.50;5034774;28;20041;-87
2023/12/03 04:20:43;;;;;;;38.67;19.52;;;;;;;0.16;80.03;99012.56;5055231;28;20078;-87
2023/12/03 04:23:09;;;;;;;38.33;19.25;;;;;;;-0.02;80.39;99012.91;5030601;28;20506;-87
2023/12/03 04:25:34;;;;;;;40.85;18.95;;;;;;;-0.14;80.86;99018.75;5052366;28;20048;-87
2023/12/03 04:28:01;;;;;;;41.15;21.85;;;;;;;-0.14;79.87;98985.47;5037512;28;20028;-87
2023/12/03 04:30:26;;;;;;;33.53;19.60;;;;;;;-0.03;80.63;99016.53;5049972;28;20032;-86
2023/12/03 04:32:52;;;;;;;35.65;19.13;;;;;;;-0.35;80.78;98997.63;5036345;28;20032;-87
2023/12/03 04:35:17;;;;;;;35.92;18.98;;;;;;;0.32;79.74;99012.44;5036215;28;20033;-87
2023/12/03 04:37:42;;;;;;;44.53;22.17;;;;;;;0.20;78.42;99002.56;5055420;28;20369;-87
2023/12/03 04:40:09;;;;;;;40.83;20.85;;;;;;;-0.09;80.36;99003.31;5045983;28;20082;-87
2023/12/03 04:42:35;;;;;;;40.70;21.30;;;;;;;0.35;79.33;99013.88;5055953;28;20520;-87
2023/12/03 04:45:01;;;;;;;41.95;20.98;;;;;;;0.26;79.41;99007.09;5037337;28;20090;-87
2023/12/03 04:47:26;;;;;;;41.75;19.83;;;;;;;-0.33;78.86;99006.91;5039082;28;20036;-87
2023/12/03 04:49:51;;;;;;;37.22;19.20;;;;;;;0.20;79.72;99020.94;5033118;28;20036;-87
2023/12/03 04:52:17;;;;;;;44.10;22.73;;;;;;;-0.22;79.15;99011.75;5047124;28;20032;-87
2023/12/03 04:54:42;;;;;;;40.03;20.30;;;;;;;0.18;79.74;99005.34;5070921;28;20020;-87
2023/12/03 04:57:08;;;;;;;38.08;18.90;;;;;;;0.18;79.26;99001.88;5054913;28;20040;-87
2023/12/03 04:59:33;;;;;;;36.58;20.88;;;;;;;0.32;78.94;99016.84;5065897;28;20025;-87
2023/12/03 05:01:58;;;;;;;36.42;18.85;;;;;;;0.33;78.90;99013.25;5031174;28;20029;-87
2023/12/03 05:04:25;;;;;;;35.95;17.65;;;;;;;0.33;78.87;99021.91;5047275;28;20029;-87
2023/12/03 05:06:51;;;;;;;35.40;20.73;;;;;;;0.17;78.56;99024.72;5066705;28;20033;-87
2023/12/03 05:09:16;;;;;;;34.25;19.38;;;;;;;0.53;78.89;99027.47;5033373;28;20032;-87
2023/12/03 05:11:44;;;;;;;35.15;18.10;;;;;;;0.56;77.92;99033.19;5071956;28;20029;-88
2023/12/03 05:14:09;;;;;;;37.17;18.92;;;;;;;0.39;77.97;99031.72;5053321;28;20050;-87
2023/12/03 05:16:35;;;;;;;41.92;21.15;;;;;;;0.37;79.45;99032.91;5053163;28;20480;-87
2023/12/03 05:19:00;;;;;;;40.60;20.45;;;;;;;0.28;78.97;99026.91;5035484;28;20444;-88
2023/12/03 05:21:25;;;;;;;36.15;19.20;;;;;;;0.41;78.31;99019.22;5070928;28;20484;-87
2023/12/03 05:23:51;;;;;;;38.63;19.20;;;;;;;0.26;79.11;99020.22;5036720;28;20474;-87
2023/12/03 05:26:16;;;;;;;36.58;20.05;;;;;;;0.43;78.32;99021.69;5028849;28;20107;-87
2023/12/03 05:28:42;;;;;;;36.22;21.15;;;;;;;0.22;78.74;98988.25;5043136;28;20033;-87
2023/12/03 05:31:07;;;;;;;35.75;17.67;;;;;;;0.44;78.52;99033.78;5055053;28;20036;-86
2023/12/03 05:33:33;;;;;;;34.50;18.30;;;;;;;0.48;78.32;99025.38;5066267;28;20029;-87
2023/12/03 05:35:58;;;;;;;35.65;17.48;;;;;;;0.46;78.22;99026.56;5034157;28;20033;-86
2023/12/03 05:38:23;;;;;;;37.22;19.08;;;;;;;0.32;78.77;99024.72;5052475;28;20085;-86
2023/12/03 05:40:49;;;;;;;35.50;19.27;;;;;;;0.46;78.16;99042.31;5050672;28;20025;-86
2023/12/03 05:43:14;;;;;;;35.72;19.77;;;;;;;0.29;78.20;99048.69;5070300;28;20563;-86
2023/12/03 05:45:40;;;;;;;33.95;18.08;;;;;;;0.14;78.45;99037.34;5063145;28;20116;-86
2023/12/03 05:48:06;;;;;;;31.27;17.80;;;;;;;0.39;78.64;99046.66;5046794;28;20029;-86
2023/12/03 05:50:32;;;;;;;37.45;19.88;;;;;;;0.31;78.21;99037.03;5037691;28;20528;-87
2023/12/03 05:52:57;;;;;;;39.67;21.48;;;;;;;0.22;77.99;99051.22;5054121;28;20036;-86
2023/12/03 05:55:23;;;;;;;37.00;19.88;;;;;;;0.35;78.07;99046.19;5049225;28;20081;-86
2023/12/03 05:57:48;;;;;;;40.17;20.13;;;;;;;0.11;77.89;99042.97;5031190;28;20044;-87
2023/12/03 06:00:14;;;;;;;39.42;20.55;;;;;;;0.25;78.27;99045.63;5037521;28;20027;-87
2023/12/03 06:02:39;;;;;;;36.70;19.95;;;;;;;0.43;78.25;99064.50;5048628;28;20037;-86
2023/12/03 06:05:05;;;;;;;38.42;20.15;;;;;;;0.41;77.77;99060.41;5061423;28;20068;-87
2023/12/03 06:07:30;;;;;;;45.50;19.58;;;;;;;0.48;78.37;99071.84;5035432;28;20056;-86
2023/12/03 06:09:56;;;;;;;37.13;18.15;;;;;;;0.23;77.45;99024.00;5065925;28;20111;-86
2023/12/03 06:12:21;;;;;;;35.22;18.15;;;;;;;0.47;77.50;99065.78;5036850;28;20032;-86
2023/12/03 06:14:47;;;;;;;35.53;18.98;;;;;;;0.35;78.04;99063.75;5049597;28;20401;-87
2023/12/03 06:17:12;;;;;;;40.35;21.60;;;;;;;0.37;77.50;99056.53;5052502;28;20103;-87
2023/12/03 06:19:37;;;;;;;34.90;18.45;;;;;;;0.30;77.69;99056.41;5037233;28;20532;-87
2023/12/03 06:22:03;;;;;;;36.88;20.85;;;;;;;0.29;77.80;99077.56;5064334;28;20374;-87
2023/12/03 06:24:28;;;;;;;37.38;20.83;;;;;;;0.30;78.16;99072.16;5069574;28;20048;-87
2023/12/03 06:26:54;;;;;;;38.55;19.70;;;;;;;0.11;78.03;99054.25;5051530;28;20024;-87
2023/12/03 06:29:20;;;;;;;40.42;21.33;;;;;;;0.35;77.52;99069.00;5042593;28;20114;-87
2023/12/03 06:31:47;;;;;;;38.75;20.42;;;;;;;0.35;77.98;99090.00;5068819;28;20388;-87
2023/12/03 06:34:12;;;;;;;31.88;18.80;;;;;;;0.42;77.20;99077.78;5067506;28;20047;-87
2023/12/03 06:36:38;;;;;;;41.03;21.25;;;;;;;0.30;78.00;99080.03;5048884;28;20029;-87
2023/12/03 06:39:04;;;;;;;38.95;20.55;;;;;;;0.28;77.81;99075.97;5069762;28;20043;-87
2023/12/03 06:41:29;;;;;;;38.90;19.73;;;;;;;0.34;77.83;99088.38;5051721;28;20037;-87
2023/12/03 06:43:54;;;;;;;37.83;19.42;;;;;;;0.21;78.20;99106.53;5053717;28;20400;-87
2023/12/03 06:46:20;;;;;;;36.20;20.42;;;;;;;0.34;77.73;99083.94;5059347;28;20072;-87
2023/12/03 06:48:45;;;;;;;38.13;19.42;;;;;;;0.37;78.06;99107.19;5067550;28;20146;-87
2023/12/03 06:51:10;;;;;;;37.63;20.42;;;;;;;0.12;77.43;99061.16;5053513;28;20037;-87
2023/12/03 06:53:36;;;;;;;34.17;19.45;;;;;;;0.43;77.14;99103.06;5048579;28;20032;-86
2023/12/03 06:56:02;;;;;;;38.08;19.73;;;;;;;0.34;77.31;99101.50;5052273;28;20028;-87
2023/12/03 06:58:27;;;;;;;35.70;19.95;;;;;;;0.30;78.00;99114.16;5060981;28;20029;-87
2023/12/03 07:00:52;;;;;;;37.20;20.20;;;;;;;0.15;78.43;99073.13;5049700;28;20687;-87
2023/12/03 07:03:18;;;;;;;38.58;21.23;;;;;;;0.31;77.92;99120.22;5046074;28;20036;-87
2023/12/03 07:05:44;;;;;;;37.83;20.83;;;;;;;0.29;78.18;99111.69;5039387;28;20028;-87
2023/12/03 07:08:09;;;;;;;43.58;23.23;;;;;;;0.25;77.62;99124.38;5036840;28;20040;-87
2023/12/03 07:10:34;;;;;;;37.40;18.63;;;;;;;0.34;78.28;99138.25;5052465;28;20120;-88
2023/12/03 07:13:00;;;;;;;39.58;19.90;;;;;;;0.22;78.36;99137.81;5034104;28;20029;-87
2023/12/03 07:15:25;;;;;;;37.70;20.50;;;;;;;0.13;78.56;99117.91;5035571;28;20037;-88
2023/12/03 07:17:50;;;;;;;43.08;19.98;;;;;;;0.48;77.87;99159.28;5045225;28;20060;-87
2023/12/03 07:20:18;;;;;;;36.55;18.23;;;;;;;0.05;78.17;99127.63;5064374;28;20040;-88
2023/12/03 07:22:43;;;;;;;38.22;18.83;;;;;;;0.35;78.34;99156.44;5051236;28;20024;-87
2023/12/03 07:25:09;;;;;;;39.58;21.27;;;;;;;0.30;77.89;99163.22;5046996;28;20380;-88
2023/12/03 07:27:35;;;;;;;42.35;21.25;;;;;;;-0.09;78.66;99165.94;5057320;28;20413;-88
2023/12/03 07:30:00;;;;;;;39.20;20.98;;;;;;;0.03;78.38;99142.72;5065903;28;20025;-88
2023/12/03 07:32:26;;;;;;;40.25;21.17;;;;;;;0.14;78.28;99137.91;5046964;28;20048;-88
2023/12/03 07:34:53;;;;;;;38.40;22.88;;;;;;;0.35;78.39;99163.50;5051653;28;20131;-88
2023/12/03 07:37:18;;;;;;;39.25;21.58;;;;;;;0.20;78.40;99157.41;5067527;28;20021;-88
2023/12/03 07:39:44;;;;;;;47.85;22.05;;;;;;;0.19;77.80;99166.25;5066699;28;20078;-88
2023/12/03 07:42:09;;;;;;;44.65;21.73;;;;;;;0.10;78.76;99164.66;5050476;28;20040;-88
2023/12/03 07:44:35;;;;;;;40.35;20.42;;;;;;;0.30;78.00;99169.28;5036031;28;20024;-88
2023/12/03 07:47:00;;;;;;;40.08;21.48;;;;;;;0.32;78.02;99174.34;5051750;28;20059;-89
2023/12/03 07:49:26;;;;;;;41.42;22.20;;;;;;;0.29;77.66;99169.44;5052154;28;20037;-89
2023/12/03 07:51:54;;;;;;;44.80;23.20;;;;;;;0.07;78.07;99171.06;5065534;28;20107;-88
2023/12/03 07:54:19;;;;;;;36.70;21.30;;;;;;;0.21;78.23;99174.75;5055707;28;20024;-88
2023/12/03 07:56:45;;;;;;;43.03;22.23;;;;;;;0.10;77.80;99170.72;5033394;28;20098;-88
2023/12/03 07:59:11;;;;;;;36.63;21.40;;;;;;;0.25;78.17;99149.78;5047893;28;20036;-87
2023/12/03 08:01:36;;;;;;;39.80;20.88;;;;;;;0.42;77.68;99181.00;5052294;28;20047;-87
2023/12/03 08:04:06;;;;;;;40.88;21.73;;;;;;;0.06;77.88;99142.38;5053659;28;20039;-87
2023/12/03 08:06:32;;;;;;;42.25;22.60;;;;;;;0.32;78.54;99180.44;5056724;28;20031;-88
2023/12/03 08:08:58;;;;;;;39.72;20.08;;;;;;;0.35;78.33;99192.38;5087479;28;20029;-88
2023/12/03 08:11:24;;;;;;;37.95;19.25;;;;;;;0.37;78.29;99174.66;5051211;28;20147;-87
2023/12/03 08:13:49;;;;;;;42.72;21.00;;;;;;;0.33;77.65;99178.63;5041484;28;20062;-87
2023/12/03 08:16:15;;;;;;;37.75;20.45;;;;;;;0.44;78.49;99186.88;5027384;28;20055;-88
2023/12/03 08:18:42;;;;;;;37.90;21.48;;;;;;;0.43;78.36;99173.94;5072952;28;20035;-87
2023/12/03 08:21:09;;;;;;;39.97;19.90;;;;;;;0.48;77.96;99185.53;5053914;28;20388;-87
2023/12/03 08:23:35;;;;;;;43.33;22.25;;;;;;;0.36;77.87;99196.63;5054497;28;20404;-87
2023/12/03 08:26:02;;;;;;;36.78;20.08;;;;;;;0.44;78.27;99197.38;5067473;28;20029;-87
2023/12/03 08:28:28;;;;;;;35.20;19.55;;;;;;;0.39;78.29;99194.50;5054140;28;20040;-87
2023/12/03 08:30:53;;;;;;;34.55;19.85;;;;;;;0.46;77.92;99182.28;5035637;28;20032;-87
2023/12/03 08:33:19;;;;;;;38.63;20.75;;;;;;;0.30;78.12;99177.16;5034083;28;20554;-88
2023/12/03 08:35:45;;;;;;;42.10;24.70;;;;;;;0.03;78.42;99158.47;5054278;28;20024;-88
2023/12/03 08:38:10;;;;;;;44.17;21.17;;;;;;;-0.02;78.32;99157.19;5051785;28;20040;-88
2023/12/03 08:40:36;;;;;;;38.25;20.05;;;;;;;0.46;78.55;99199.84;5037763;28;20028;-88
2023/12/03 08:43:01;;;;;;;38.95;20.98;;;;;;;0.25;78.92;99191.78;5051711;28;20121;-87
2023/12/03 08:45:27;;;;;;;36.90;19.50;;;;;;;0.32;78.18;99174.34;5053867;28;20028;-87
2023/12/03 08:47:53;;;;;;;38.60;22.88;;;;;;;0.50;78.28;99209.00;5055263;28;20751;-86
2023/12/03 08:50:18;;;;;;;40.63;22.58;;;;;;;0.23;78.66;99197.22;5051659;28;20041;-86
2023/12/03 08:52:44;;;;;;;34.50;20.60;;;;;;;0.51;78.97;99219.34;5049792;28;20046;-87
2023/12/03 08:55:09;;;;;;;38.30;21.40;;;;;;;0.60;77.96;99222.72;5054824;28;20129;-87
2023/12/03 08:57:36;;;;;;;40.13;20.65;;;;;;;0.54;78.37;99234.75;5065989;28;20054;-87
2023/12/03 09:00:04;;;;;;;38.58;21.20;;;;;;;0.47;77.98;99218.06;5065019;28;20027;-87
2023/12/03 09:02:29;;;;;;;40.08;22.08;;;;;;;0.59;78.02;99235.03;5038493;28;20040;-86
2023/12/03 09:04:55;;;;;;;40.70;21.85;;;;;;;0.17;78.48;99195.28;5046345;28;20040;-87
2023/12/03 09:07:20;;;;;;;41.80;22.50;;;;;;;0.42;78.23;99240.56;5028221;28;20396;-86
2023/12/03 09:09:45;;;;;;;41.78;21.60;;;;;;;0.34;77.86;99194.19;5051405;28;20408;-87
2023/12/03 09:12:11;;;;;;;40.10;21.08;;;;;;;0.61;77.94;99243.53;5034619;28;20106;-87
2023/12/03 09:14:36;;;;;;;38.65;20.40;;;;;;;0.52;78.20;99241.16;5033978;28;20035;-86
2023/12/03 09:17:03;;;;;;;33.13;19.02;;;;;;;0.44;78.55;99234.16;5068019;28;20033;-86
2023/12/03 09:19:29;;;;;;;38.92;22.08;;;;;;;0.37;78.34;99245.53;5073069;28;20074;-86
2023/12/03 09:21:55;;;;;;;38.90;21.15;;;;;;;0.07;78.50;99188.66;5067214;28;20024;-86
2023/12/03 09:24:20;;;;;;;34.30;20.02;;;;;;;0.56;78.57;99252.94;5065937;28;20029;-86
2023/12/03 09:26:47;;;;;;;35.15;20.13;;;;;;;0.44;79.04;99251.69;5046936;28;20401;-86
2023/12/03 09:29:13;;;;;;;36.85;18.33;;;;;;;0.60;78.05;99260.31;5047274;28;20464;-86
2023/12/03 09:31:39;;;;;;;34.65;18.85;;;;;;;0.48;78.79;99256.44;5065687;28;20027;-86
2023/12/03 09:34:08;;;;;;;38.58;22.02;;;;;;;0.39;78.35;99260.13;5066758;28;20082;-85
2023/12/03 09:36:34;;;;;;;34.65;18.25;;;;;;;0.47;78.48;99260.06;5053986;28;20480;-86
2023/12/03 09:39:01;;;;;;;35.17;19.17;;;;;;;0.52;78.31;99249.88;5077173;28;20103;-86
2023/12/03 09:41:29;;;;;;;35.95;19.63;;;;;;;0.48;77.99;99264.31;5056375;28;20043;-86
2023/12/03 09:43:59;;;;;;;36.70;20.15;;;;;;;0.26;78.08;99235.44;5063960;28;20028;-86
2023/12/03 09:46:27;;;;;;;35.40;20.10;;;;;;;0.44;78.26;99272.69;5069391;28;20052;-86
2023/12/03 09:48:53;;;;;;;36.38;19.95;;;;;;;0.42;78.81;99280.75;5051345;28;20063;-86
2023/12/03 09:51:19;;;;;;;38.05;20.15;;;;;;;0.55;78.44;99283.63;5032963;28;20056;-86
2023/12/03 09:53:46;;;;;;;36.08;20.50;;;;;;;0.52;78.50;99273.50;5073395;28;20021;-86
2023/12/03 09:56:12;;;;;;;37.33;19.77;;;;;;;0.64;78.21;99276.50;5065442;28;20042;-86
2023/12/03 09:58:38;;;;;;;32.67;20.10;;;;;;;0.65;77.89;99291.31;5052147;28;20100;-86
2023/12/03 10:01:04;;;;;;;35.78;20.10;;;;;;;0.66;77.81;99296.38;5049695;28;20044;-86
2023/12/03 10:03:30;;;;;;;39.83;22.40;;;;;;;0.57;78.38;99288.69;5066265;28;20127;-87
2023/12/03 10:05:56;;;;;;;36.58;19.50;;;;;;;0.46;78.31;99261.03;5052044;28;20159;-87
2023/12/03 10:08:22;;;;;;;35.10;20.67;;;;;;;0.61;78.52;99292.63;5048321;28;20036;-87
2023/12/03 10:10:59;;;;;;;37.22;20.65;;;;;;;0.71;77.43;99294.03;5051784;28;20037;-86
2023/12/03 10:13:26;;;;;;;41.15;22.40;;;;;;;0.61;77.80;99316.28;5047301;28;20060;-86
2023/12/03 10:15:52;;;;;;;43.00;22.42;;;;;;;0.69;78.26;99311.78;5060771;28;20028;-86
2023/12/03 10:18:20;;;;;;;49.15;24.80;;;;;;;0.27;77.18;99277.25;5033855;28;20031;-86
2023/12/03 10:20:45;;;;;;;46.30;24.95;;;;;;;0.32;77.80;99313.47;5065640;28;20654;-87
2023/12/03 10:23:15;;;;;;;53.60;24.25;;;;;;;0.30;77.98;99300.53;5045555;28;20024;-87
2023/12/03 10:25:41;;;;;;;44.13;24.55;;;;;;;0.37;78.19;99311.97;5061085;28;20028;-87
2023/12/03 10:28:11;;;;;;;44.90;23.73;;;;;;;0.31;78.16;99306.56;5046230;28;20062;-85
2023/12/03 10:30:37;;;;;;;42.83;21.83;;;;;;;0.02;77.59;99273.13;5052843;28;20425;-85
2023/12/03 10:33:06;;;;;;;41.15;22.52;;;;;;;0.20;78.17;99289.41;5065230;28;20046;-85
2023/12/03 10:35:42;;;;;;;40.42;21.77;;;;;;;0.40;77.77;99319.50;5068258;28;20051;-85
2023/12/03 10:38:08;;;;;;;35.97;19.83;;;;;;;0.42;77.58;99320.16;5064804;28;20028;-85
2023/12/03 10:40:33;;;;;;;39.33;20.88;;;;;;;0.40;77.74;99319.50;5083755;28;20124;-85
2023/12/03 10:43:01;;;;;;;41.60;23.42;;;;;;;0.36;77.75;99325.25;5047451;28;20040;-86
2023/12/03 10:45:27;;;;;;;46.90;23.77;;;;;;;0.00;77.47;99259.34;5074070;28;20067;-84
2023/12/03 10:47:55;;;;;;;41.45;21.75;;;;;;;0.27;77.70;99305.28;5047643;28;20602;-85
2023/12/03 10:50:21;;;;;;;39.25;22.25;;;;;;;0.50;77.35;99320.09;5066135;28;20035;-86
2023/12/03 10:52:49;;;;;;;40.33;21.00;;;;;;;0.40;77.73;99316.03;5049835;28;20032;-86
2023/12/03 10:55:15;;;;;;;37.53;20.67;;;;;;;0.40;77.82;99310.81;5064556;28;20029;-86
2023/12/03 10:58:04;;;;;;;39.78;23.13;;;;;;;0.35;77.65;99321.81;5067887;28;20052;-86
2023/12/03 11:00:38;;;;;;;41.70;20.83;;;;;;;0.37;77.32;99324.28;5065842;28;20025;-85
2023/12/03 11:03:13;;;;;;;39.95;21.67;;;;;;;0.46;77.69;99310.94;5067526;28;20040;-86
2023/12/03 11:05:46;;;;;;;36.50;19.93;;;;;;;0.44;77.36;99307.66;5084338;28;20055;-86
2023/12/03 11:08:14;;;;;;;40.17;20.80;;;;;;;0.18;77.46;99267.78;5082384;28;20276;-87
2023/12/03 11:10:40;;;;;;;47.75;22.52;;;;;;;0.53;77.29;99311.06;5054773;28;20041;-87
2023/12/03 11:13:09;;;;;;;43.30;23.02;;;;;;;0.40;77.21;99290.63;5053282;28;20040;-87
2023/12/03 11:15:36;;;;;;;41.80;22.20;;;;;;;0.51;77.07;99310.41;5047331;28;20105;-87
2023/12/03 11:18:05;;;;;;;38.70;21.27;;;;;;;0.59;77.27;99305.13;5068952;28;20092;-88